EZS27BL LFSB-LICJ
Flight info
| Callsign | EZS27BL |
|---|---|
| Flight time | 1h 51m |
| Altitude | 37000 |
| Route | ELBEG8B ELBEG Y715 AMRUP N491 TRA DCT RIPUS DCT GERSA Z50 RESIA DCT BENUS DCT VALMA DCT BETOT DCT RONAB DCT GIANO GIANO3N |
| Aircraft | A320/M-SDE3FGHIRWY/LB1 |
Departure
| Time | 2026-04-28 18:35 |
|---|---|
| Airport | EuroAirport Basel–Mulhouse–Freiburg (LFSB) |
Arrival
| Time | 2026-04-28 20:26 |
|---|---|
| Airport | Falcone–Borsellino Airport (LICJ) |
| Time | Latitude | Longitude | Altitude | Speed | Heading |
|---|---|---|---|---|---|
| 2026-04-28 17:55 | 47.59828 | 7.53156 | 891 ft | 0 kts | 65° |
| 2026-04-28 18:09 | 47.59828 | 7.53155 | 891 ft | 0 kts | 65° |
| 2026-04-28 18:25 | 47.59826 | 7.53149 | 893 ft | 3 kts | 63° |
| 2026-04-28 18:25 | 47.59811 | 7.53118 | 893 ft | 4 kts | 38° |
| 2026-04-28 18:25 | 47.59788 | 7.53100 | 893 ft | 4 kts | 5° |
| 2026-04-28 18:26 | 47.59761 | 7.53107 | 893 ft | 0 kts | 330° |
| 2026-04-28 18:28 | 47.59763 | 7.53089 | 893 ft | 3 kts | 258° |
| 2026-04-28 18:28 | 47.59715 | 7.53064 | 893 ft | 11 kts | 191° |
| 2026-04-28 18:29 | 47.59666 | 7.52997 | 893 ft | 9 kts | 244° |
| 2026-04-28 18:29 | 47.59642 | 7.52920 | 893 ft | 7 kts | 245° |
| 2026-04-28 18:29 | 47.59622 | 7.52858 | 893 ft | 6 kts | 245° |
| 2026-04-28 18:29 | 47.59588 | 7.52813 | 893 ft | 10 kts | 190° |
| 2026-04-28 18:30 | 47.59514 | 7.52850 | 892 ft | 11 kts | 154° |
| 2026-04-28 18:30 | 47.59472 | 7.52880 | 892 ft | 9 kts | 155° |
| 2026-04-28 18:30 | 47.59357 | 7.52960 | 892 ft | 19 kts | 155° |
| 2026-04-28 18:30 | 47.59231 | 7.53047 | 892 ft | 15 kts | 155° |
| 2026-04-28 18:31 | 47.59182 | 7.53166 | 892 ft | 15 kts | 89° |
| 2026-04-28 18:31 | 47.59146 | 7.53299 | 894 ft | 14 kts | 88° |
| 2026-04-28 18:31 | 47.59168 | 7.53438 | 893 ft | 14 kts | 77° |
| 2026-04-28 18:31 | 47.59191 | 7.53586 | 893 ft | 15 kts | 77° |
| 2026-04-28 18:32 | 47.59217 | 7.53749 | 892 ft | 17 kts | 77° |
| 2026-04-28 18:32 | 47.59244 | 7.53914 | 892 ft | 8 kts | 78° |
| 2026-04-28 18:32 | 47.59245 | 7.53923 | 892 ft | 0 kts | 81° |
| 2026-04-28 18:33 | 47.59245 | 7.53935 | 892 ft | 4 kts | 90° |
| 2026-04-28 18:33 | 47.59219 | 7.54016 | 890 ft | 13 kts | 122° |
| 2026-04-28 18:33 | 47.59159 | 7.54007 | 888 ft | 10 kts | 246° |
| 2026-04-28 18:33 | 47.59151 | 7.53966 | 888 ft | 0 kts | 257° |
| 2026-04-28 18:34 | 47.59131 | 7.53834 | 890 ft | 46 kts | 257° |
| 2026-04-28 18:34 | 47.58995 | 7.52969 | 895 ft | 124 kts | 257° |
| 2026-04-28 18:35 | 47.58765 | 7.51461 | 1095 ft | 161 kts | 258° |
| 2026-04-28 18:35 | 47.58527 | 7.49874 | 1915 ft | 157 kts | 257° |
| 2026-04-28 18:35 | 47.58283 | 7.48290 | 2714 ft | 158 kts | 256° |
| 2026-04-28 18:35 | 47.58023 | 7.46706 | 3244 ft | 158 kts | 255° |
| 2026-04-28 18:36 | 47.57734 | 7.45140 | 3729 ft | 157 kts | 252° |
| 2026-04-28 18:36 | 47.57424 | 7.43553 | 4090 ft | 167 kts | 253° |
| 2026-04-28 18:36 | 47.57092 | 7.41832 | 4339 ft | 183 kts | 253° |
| 2026-04-28 18:36 | 47.56731 | 7.39916 | 4525 ft | 204 kts | 253° |
| 2026-04-28 18:37 | 47.56325 | 7.37763 | 4683 ft | 230 kts | 253° |
| 2026-04-28 18:37 | 47.55865 | 7.35361 | 4958 ft | 254 kts | 253° |
| 2026-04-28 18:37 | 47.55354 | 7.32741 | 5427 ft | 272 kts | 253° |
| 2026-04-28 18:37 | 47.54819 | 7.30024 | 6198 ft | 277 kts | 253° |
| 2026-04-28 18:38 | 47.54277 | 7.27307 | 6985 ft | 280 kts | 253° |
| 2026-04-28 18:38 | 47.53723 | 7.24533 | 7802 ft | 283 kts | 253° |
| 2026-04-28 18:38 | 47.53163 | 7.21731 | 8643 ft | 285 kts | 253° |
| 2026-04-28 18:38 | 47.52600 | 7.18909 | 9481 ft | 286 kts | 253° |
| 2026-04-28 18:39 | 47.52028 | 7.16032 | 10244 ft | 292 kts | 253° |
| 2026-04-28 18:39 | 47.51441 | 7.13080 | 10451 ft | 315 kts | 253° |
| 2026-04-28 18:39 | 47.50800 | 7.09861 | 10634 ft | 337 kts | 253° |
| 2026-04-28 18:39 | 47.50264 | 7.06426 | 10969 ft | 349 kts | 264° |
| 2026-04-28 18:40 | 47.50475 | 7.02856 | 11045 ft | 350 kts | 285° |
| 2026-04-28 18:40 | 47.51552 | 6.99633 | 11054 ft | 352 kts | 307° |
| 2026-04-28 18:40 | 47.53347 | 6.97187 | 11055 ft | 353 kts | 328° |
| 2026-04-28 18:40 | 47.55627 | 6.95831 | 11055 ft | 355 kts | 349° |
| 2026-04-28 18:41 | 47.58082 | 6.95769 | 11055 ft | 355 kts | 10° |
| 2026-04-28 18:41 | 47.60391 | 6.97020 | 11053 ft | 354 kts | 32° |
| 2026-04-28 18:41 | 47.62234 | 6.99399 | 11051 ft | 352 kts | 52° |
| 2026-04-28 18:41 | 47.63379 | 7.02580 | 11050 ft | 351 kts | 73° |
| 2026-04-28 18:42 | 47.63813 | 7.06147 | 11054 ft | 352 kts | 83° |
| 2026-04-28 18:42 | 47.64130 | 7.09745 | 11050 ft | 352 kts | 83° |
| 2026-04-28 18:42 | 47.64431 | 7.13186 | 11049 ft | 352 kts | 83° |
| 2026-04-28 18:42 | 47.64744 | 7.16789 | 11046 ft | 353 kts | 82° |
| 2026-04-28 18:43 | 47.65056 | 7.20404 | 11047 ft | 353 kts | 82° |
| 2026-04-28 18:43 | 47.65368 | 7.23986 | 11047 ft | 354 kts | 82° |
| 2026-04-28 18:43 | 47.65686 | 7.27630 | 11443 ft | 359 kts | 82° |
| 2026-04-28 18:43 | 47.66006 | 7.31317 | 12211 ft | 361 kts | 83° |
| 2026-04-28 18:44 | 47.66330 | 7.35047 | 12886 ft | 365 kts | 83° |
| 2026-04-28 18:44 | 47.66975 | 7.42595 | 13939 ft | 373 kts | 83° |
| 2026-04-28 18:44 | 47.67300 | 7.46437 | 14028 ft | 373 kts | 83° |
| 2026-04-28 18:45 | 47.67627 | 7.50278 | 14057 ft | 373 kts | 83° |
| 2026-04-28 18:45 | 47.67954 | 7.54096 | 14056 ft | 373 kts | 83° |
| 2026-04-28 18:45 | 47.68278 | 7.57913 | 14051 ft | 372 kts | 83° |
| 2026-04-28 18:45 | 47.68599 | 7.61728 | 14056 ft | 372 kts | 83° |
| 2026-04-28 18:46 | 47.68914 | 7.65544 | 14054 ft | 373 kts | 83° |
| 2026-04-28 18:46 | 47.69230 | 7.69369 | 14055 ft | 373 kts | 83° |
| 2026-04-28 18:46 | 47.69555 | 7.73186 | 14053 ft | 373 kts | 81° |
| 2026-04-28 18:46 | 47.70188 | 7.76914 | 14055 ft | 373 kts | 70° |
| 2026-04-28 18:47 | 47.71104 | 7.80519 | 14052 ft | 373 kts | 69° |
| 2026-04-28 18:47 | 47.72017 | 7.84119 | 14052 ft | 373 kts | 69° |
| 2026-04-28 18:47 | 47.72929 | 7.87732 | 14052 ft | 373 kts | 69° |
| 2026-04-28 18:47 | 47.73823 | 7.91297 | 14141 ft | 376 kts | 70° |
| 2026-04-28 18:48 | 47.74738 | 7.94960 | 14753 ft | 379 kts | 70° |
| 2026-04-28 18:48 | 47.75656 | 7.98638 | 15395 ft | 381 kts | 69° |
| 2026-04-28 18:48 | 47.76526 | 8.02376 | 15958 ft | 385 kts | 75° |
| 2026-04-28 18:48 | 47.76964 | 8.06320 | 16519 ft | 389 kts | 86° |
| 2026-04-28 18:49 | 47.76882 | 8.10348 | 17101 ft | 392 kts | 98° |
| 2026-04-28 18:49 | 47.76738 | 8.11695 | 17295 ft | 393 kts | 102° |
| 2026-04-28 18:49 | 47.75331 | 8.18161 | 18244 ft | 398 kts | 111° |
| 2026-04-28 18:49 | 47.74363 | 8.22038 | 18756 ft | 402 kts | 111° |
| 2026-04-28 18:50 | 47.73387 | 8.25941 | 19252 ft | 405 kts | 111° |
| 2026-04-28 18:50 | 47.72403 | 8.29888 | 19744 ft | 409 kts | 111° |
| 2026-04-28 18:50 | 47.71360 | 8.33835 | 20236 ft | 411 kts | 117° |
| 2026-04-28 18:50 | 47.69866 | 8.37443 | 20687 ft | 411 kts | 131° |
| 2026-04-28 18:51 | 47.67882 | 8.40482 | 21144 ft | 410 kts | 144° |
| 2026-04-28 18:51 | 47.65510 | 8.42813 | 21553 ft | 409 kts | 157° |
| 2026-04-28 18:51 | 47.62861 | 8.44330 | 22005 ft | 407 kts | 169° |
| 2026-04-28 18:51 | 47.60070 | 8.45006 | 22437 ft | 406 kts | 178° |
| 2026-04-28 18:52 | 47.57250 | 8.45410 | 22883 ft | 409 kts | 178° |
| 2026-04-28 18:52 | 47.54409 | 8.45825 | 23322 ft | 411 kts | 178° |
| 2026-04-28 18:52 | 47.51549 | 8.46250 | 23737 ft | 414 kts | 178° |
| 2026-04-28 18:52 | 47.48674 | 8.46681 | 24074 ft | 416 kts | 179° |
| 2026-04-28 18:53 | 47.45788 | 8.47111 | 24417 ft | 419 kts | 179° |
| 2026-04-28 18:53 | 47.42874 | 8.47539 | 24742 ft | 421 kts | 179° |
| 2026-04-28 18:53 | 47.39955 | 8.47965 | 25074 ft | 423 kts | 179° |
| 2026-04-28 18:53 | 47.37016 | 8.48395 | 25387 ft | 426 kts | 179° |
| 2026-04-28 18:54 | 47.34050 | 8.48831 | 25698 ft | 429 kts | 179° |
| 2026-04-28 18:54 | 47.31076 | 8.49264 | 26031 ft | 431 kts | 180° |
| 2026-04-28 18:54 | 47.28078 | 8.49697 | 26345 ft | 433 kts | 180° |
| 2026-04-28 18:54 | 47.25068 | 8.50132 | 26642 ft | 435 kts | 180° |
| 2026-04-28 18:55 | 47.22050 | 8.50571 | 26937 ft | 438 kts | 180° |
| 2026-04-28 18:55 | 47.20033 | 8.50867 | 27132 ft | 439 kts | 180° |
| 2026-04-28 18:55 | 47.15955 | 8.51465 | 27510 ft | 442 kts | 180° |
| 2026-04-28 18:55 | 47.12889 | 8.51910 | 27798 ft | 444 kts | 180° |
| 2026-04-28 18:56 | 47.09822 | 8.52703 | 28067 ft | 454 kts | 169° |
| 2026-04-28 18:56 | 47.06837 | 8.54380 | 28348 ft | 465 kts | 158° |
| 2026-04-28 18:56 | 47.04080 | 8.56969 | 28596 ft | 476 kts | 145° |
| 2026-04-28 18:56 | 47.01704 | 8.60405 | 28812 ft | 486 kts | 133° |
| 2026-04-28 18:57 | 46.99829 | 8.64569 | 29013 ft | 494 kts | 121° |
| 2026-04-28 18:57 | 46.98225 | 8.69030 | 29210 ft | 497 kts | 121° |
| 2026-04-28 18:57 | 46.96604 | 8.73507 | 29402 ft | 499 kts | 121° |
| 2026-04-28 18:57 | 46.94962 | 8.78012 | 29618 ft | 500 kts | 121° |
| 2026-04-28 18:58 | 46.93326 | 8.82488 | 29905 ft | 499 kts | 121° |
| 2026-04-28 18:58 | 46.91687 | 8.86960 | 30201 ft | 499 kts | 121° |
| 2026-04-28 18:58 | 46.90043 | 8.91438 | 30445 ft | 499 kts | 121° |
| 2026-04-28 18:58 | 46.88401 | 8.95914 | 30681 ft | 499 kts | 121° |
| 2026-04-28 18:59 | 46.86763 | 9.00382 | 30913 ft | 499 kts | 121° |
| 2026-04-28 18:59 | 46.85117 | 9.04869 | 31188 ft | 499 kts | 121° |
| 2026-04-28 18:59 | 46.83478 | 9.09324 | 31437 ft | 498 kts | 121° |
| 2026-04-28 18:59 | 46.81834 | 9.13782 | 31698 ft | 498 kts | 121° |
| 2026-04-28 19:00 | 46.80193 | 9.18226 | 31921 ft | 497 kts | 121° |
| 2026-04-28 19:00 | 46.78574 | 9.22609 | 32149 ft | 495 kts | 121° |
| 2026-04-28 19:00 | 46.76935 | 9.27035 | 32383 ft | 496 kts | 121° |
| 2026-04-28 19:00 | 46.75293 | 9.31453 | 32581 ft | 494 kts | 121° |
| 2026-04-28 19:01 | 46.74188 | 9.34426 | 32695 ft | 494 kts | 121° |
| 2026-04-28 19:01 | 46.72007 | 9.40278 | 33012 ft | 495 kts | 121° |
| 2026-04-28 19:01 | 46.70360 | 9.44687 | 33241 ft | 496 kts | 121° |
| 2026-04-28 19:01 | 46.69266 | 9.47612 | 33409 ft | 495 kts | 121° |
| 2026-04-28 19:02 | 46.67618 | 9.52017 | 33651 ft | 495 kts | 121° |
| 2026-04-28 19:02 | 46.65978 | 9.56405 | 33863 ft | 494 kts | 121° |
| 2026-04-28 19:02 | 46.64327 | 9.60817 | 34105 ft | 495 kts | 121° |
| 2026-04-28 19:02 | 46.62681 | 9.65213 | 34332 ft | 495 kts | 121° |
| 2026-04-28 19:03 | 46.61027 | 9.69610 | 34581 ft | 494 kts | 121° |
| 2026-04-28 19:03 | 46.59377 | 9.73979 | 34784 ft | 492 kts | 121° |
| 2026-04-28 19:03 | 46.57722 | 9.78342 | 34929 ft | 493 kts | 121° |
| 2026-04-28 19:03 | 46.56066 | 9.82709 | 35118 ft | 493 kts | 121° |
| 2026-04-28 19:04 | 46.54417 | 9.87063 | 35307 ft | 492 kts | 121° |
| 2026-04-28 19:04 | 46.52763 | 9.91410 | 35521 ft | 491 kts | 121° |
| 2026-04-28 19:04 | 46.51112 | 9.95737 | 35755 ft | 490 kts | 122° |
| 2026-04-28 19:04 | 46.49252 | 9.99853 | 35961 ft | 486 kts | 131° |
| 2026-04-28 19:05 | 46.47011 | 10.03485 | 36150 ft | 481 kts | 140° |
| 2026-04-28 19:05 | 46.44455 | 10.06566 | 36312 ft | 475 kts | 149° |
| 2026-04-28 19:05 | 46.41657 | 10.09050 | 36480 ft | 469 kts | 157° |
| 2026-04-28 19:05 | 46.38771 | 10.11240 | 36604 ft | 469 kts | 157° |
| 2026-04-28 19:06 | 46.35877 | 10.13434 | 36776 ft | 470 kts | 156° |
| 2026-04-28 19:06 | 46.32978 | 10.15633 | 36951 ft | 470 kts | 156° |
| 2026-04-28 19:06 | 46.30120 | 10.17798 | 37113 ft | 470 kts | 156° |
| 2026-04-28 19:06 | 46.27217 | 10.19993 | 37140 ft | 471 kts | 157° |
| 2026-04-28 19:07 | 46.21412 | 10.24372 | 37139 ft | 471 kts | 157° |
| 2026-04-28 19:07 | 46.15598 | 10.28743 | 37141 ft | 471 kts | 157° |
| 2026-04-28 19:08 | 46.09790 | 10.33098 | 37113 ft | 471 kts | 156° |
| 2026-04-28 19:08 | 46.03980 | 10.37453 | 37140 ft | 471 kts | 156° |
| 2026-04-28 19:09 | 45.98167 | 10.41805 | 37117 ft | 471 kts | 156° |
| 2026-04-28 19:09 | 45.92355 | 10.46150 | 37104 ft | 471 kts | 156° |
| 2026-04-28 19:10 | 45.86534 | 10.50483 | 37098 ft | 471 kts | 156° |
| 2026-04-28 19:10 | 45.80713 | 10.54808 | 37091 ft | 471 kts | 156° |
| 2026-04-28 19:11 | 45.74895 | 10.59115 | 37073 ft | 470 kts | 156° |
| 2026-04-28 19:11 | 45.69065 | 10.63415 | 37078 ft | 471 kts | 156° |
| 2026-04-28 19:12 | 45.63233 | 10.67710 | 37036 ft | 471 kts | 156° |
| 2026-04-28 19:12 | 45.57393 | 10.72009 | 37017 ft | 472 kts | 156° |
| 2026-04-28 19:13 | 45.51551 | 10.76296 | 37019 ft | 472 kts | 156° |
| 2026-04-28 19:13 | 45.45746 | 10.80537 | 37003 ft | 472 kts | 156° |
| 2026-04-28 19:14 | 45.39907 | 10.84803 | 37018 ft | 472 kts | 156° |
| 2026-04-28 19:14 | 45.34050 | 10.89074 | 37029 ft | 472 kts | 156° |
| 2026-04-28 19:15 | 45.28204 | 10.93327 | 37034 ft | 472 kts | 156° |
| 2026-04-28 19:15 | 45.23339 | 10.96855 | 37015 ft | 472 kts | 156° |
| 2026-04-28 19:16 | 45.16494 | 11.01807 | 37019 ft | 472 kts | 156° |
| 2026-04-28 19:16 | 45.10640 | 11.06029 | 37019 ft | 472 kts | 156° |
| 2026-04-28 19:17 | 45.04813 | 11.10228 | 37035 ft | 472 kts | 156° |
| 2026-04-28 19:17 | 44.98954 | 11.14438 | 37083 ft | 472 kts | 156° |
| 2026-04-28 19:18 | 44.93074 | 11.18519 | 37095 ft | 469 kts | 162° |
| 2026-04-28 19:18 | 44.86825 | 11.20624 | 37110 ft | 458 kts | 180° |
| 2026-04-28 19:19 | 44.80483 | 11.21059 | 37102 ft | 456 kts | 182° |
| 2026-04-28 19:19 | 44.74131 | 11.21496 | 37111 ft | 457 kts | 181° |
| 2026-04-28 19:20 | 44.67781 | 11.21947 | 37108 ft | 457 kts | 181° |
| 2026-04-28 19:20 | 44.61425 | 11.22377 | 37109 ft | 457 kts | 181° |
| 2026-04-28 19:21 | 44.55069 | 11.22806 | 37119 ft | 457 kts | 181° |
| 2026-04-28 19:21 | 44.48705 | 11.23232 | 37132 ft | 458 kts | 181° |
| 2026-04-28 19:22 | 44.43422 | 11.23596 | 37120 ft | 457 kts | 181° |
| 2026-04-28 19:22 | 44.36001 | 11.24099 | 37142 ft | 456 kts | 181° |
| 2026-04-28 19:23 | 44.29657 | 11.24538 | 37156 ft | 456 kts | 181° |
| 2026-04-28 19:23 | 44.23317 | 11.24973 | 37161 ft | 456 kts | 181° |
| 2026-04-28 19:24 | 44.17022 | 11.25389 | 37153 ft | 456 kts | 181° |
| 2026-04-28 19:24 | 44.10693 | 11.25811 | 37140 ft | 455 kts | 181° |
| 2026-04-28 19:25 | 44.04362 | 11.26238 | 37092 ft | 455 kts | 181° |
| 2026-04-28 19:25 | 43.98035 | 11.26667 | 37070 ft | 455 kts | 181° |
| 2026-04-28 19:26 | 43.91704 | 11.27095 | 37073 ft | 455 kts | 181° |
| 2026-04-28 19:26 | 43.85377 | 11.27514 | 37036 ft | 455 kts | 181° |
| 2026-04-28 19:27 | 43.79046 | 11.27934 | 37037 ft | 455 kts | 181° |
| 2026-04-28 19:27 | 43.72725 | 11.28353 | 37041 ft | 455 kts | 181° |
| 2026-04-28 19:28 | 43.66394 | 11.28770 | 37025 ft | 455 kts | 181° |
| 2026-04-28 19:28 | 43.60064 | 11.29186 | 37037 ft | 455 kts | 181° |
| 2026-04-28 19:29 | 43.54815 | 11.29543 | 37046 ft | 455 kts | 181° |
| 2026-04-28 19:29 | 43.47416 | 11.30022 | 37057 ft | 455 kts | 181° |
| 2026-04-28 19:30 | 43.41099 | 11.30433 | 37060 ft | 454 kts | 181° |
| 2026-04-28 19:30 | 43.34784 | 11.30852 | 37061 ft | 454 kts | 181° |
| 2026-04-28 19:31 | 43.28467 | 11.31272 | 37057 ft | 454 kts | 181° |
| 2026-04-28 19:31 | 43.22153 | 11.31683 | 37051 ft | 454 kts | 181° |
| 2026-04-28 19:32 | 43.15838 | 11.32098 | 37060 ft | 454 kts | 181° |
| 2026-04-28 19:32 | 43.09524 | 11.32504 | 37070 ft | 454 kts | 181° |
| 2026-04-28 19:33 | 43.03210 | 11.32912 | 37066 ft | 454 kts | 181° |
| 2026-04-28 19:33 | 42.96900 | 11.33328 | 37067 ft | 454 kts | 181° |
| 2026-04-28 19:34 | 42.90585 | 11.33744 | 37072 ft | 454 kts | 181° |
| 2026-04-28 19:34 | 42.84279 | 11.34146 | 37063 ft | 454 kts | 181° |
| 2026-04-28 19:35 | 42.77976 | 11.34545 | 37073 ft | 453 kts | 181° |
| 2026-04-28 19:35 | 42.71672 | 11.34947 | 37075 ft | 453 kts | 181° |
| 2026-04-28 19:36 | 42.65370 | 11.35354 | 37070 ft | 453 kts | 181° |
| 2026-04-28 19:36 | 42.59076 | 11.35753 | 37076 ft | 453 kts | 181° |
| 2026-04-28 19:37 | 42.53843 | 11.36086 | 37081 ft | 453 kts | 181° |
| 2026-04-28 19:37 | 42.46491 | 11.36566 | 37079 ft | 453 kts | 181° |
| 2026-04-28 19:38 | 42.40198 | 11.36972 | 37074 ft | 452 kts | 181° |
| 2026-04-28 19:38 | 42.33914 | 11.37370 | 37080 ft | 452 kts | 181° |
| 2026-04-28 19:39 | 42.27622 | 11.37985 | 37081 ft | 454 kts | 178° |
| 2026-04-28 19:39 | 42.21335 | 11.38917 | 37079 ft | 454 kts | 177° |
| 2026-04-28 19:40 | 42.15060 | 11.39872 | 37081 ft | 453 kts | 177° |
| 2026-04-28 19:40 | 42.08787 | 11.40750 | 37075 ft | 453 kts | 178° |
| 2026-04-28 19:41 | 42.02514 | 11.41583 | 37074 ft | 453 kts | 178° |
| 2026-04-28 19:41 | 41.96235 | 11.42407 | 37070 ft | 453 kts | 178° |
| 2026-04-28 19:42 | 41.89957 | 11.43250 | 37068 ft | 453 kts | 178° |
| 2026-04-28 19:42 | 41.84741 | 11.43962 | 37076 ft | 453 kts | 178° |
| 2026-04-28 19:43 | 41.77405 | 11.44942 | 37068 ft | 453 kts | 178° |
| 2026-04-28 19:43 | 41.71130 | 11.45776 | 37073 ft | 453 kts | 178° |
| 2026-04-28 19:44 | 41.65909 | 11.46473 | 37072 ft | 453 kts | 178° |
| 2026-04-28 19:44 | 41.58614 | 11.47447 | 37068 ft | 453 kts | 178° |
| 2026-04-28 19:45 | 41.53355 | 11.48149 | 37080 ft | 453 kts | 178° |
| 2026-04-28 19:45 | 41.47078 | 11.48985 | 37082 ft | 453 kts | 178° |
| 2026-04-28 19:46 | 41.40809 | 11.49811 | 37069 ft | 453 kts | 177° |
| 2026-04-28 19:46 | 41.34538 | 11.50645 | 37074 ft | 453 kts | 177° |
| 2026-04-28 19:47 | 41.28270 | 11.51476 | 37074 ft | 452 kts | 177° |
| 2026-04-28 19:47 | 41.22006 | 11.52297 | 37074 ft | 452 kts | 177° |
| 2026-04-28 19:48 | 41.15745 | 11.53126 | 37067 ft | 451 kts | 177° |
| 2026-04-28 19:48 | 41.09498 | 11.53955 | 37072 ft | 451 kts | 177° |
| 2026-04-28 19:49 | 41.03250 | 11.54772 | 37075 ft | 451 kts | 177° |
| 2026-04-28 19:49 | 40.97052 | 11.55583 | 37067 ft | 451 kts | 177° |
| 2026-04-28 19:50 | 40.87685 | 11.56814 | 37077 ft | 451 kts | 177° |
| 2026-04-28 19:51 | 40.81441 | 11.57626 | 37072 ft | 451 kts | 177° |
| 2026-04-28 19:51 | 40.75204 | 11.58436 | 37062 ft | 450 kts | 177° |
| 2026-04-28 19:52 | 40.68971 | 11.59249 | 37073 ft | 450 kts | 177° |
| 2026-04-28 19:52 | 40.62742 | 11.60054 | 37075 ft | 449 kts | 177° |
| 2026-04-28 19:53 | 40.56519 | 11.60855 | 37077 ft | 449 kts | 177° |
| 2026-04-28 19:53 | 40.50296 | 11.61654 | 37080 ft | 449 kts | 177° |
| 2026-04-28 19:54 | 40.44076 | 11.62465 | 37080 ft | 449 kts | 177° |
| 2026-04-28 19:54 | 40.37894 | 11.63657 | 37081 ft | 452 kts | 166° |
| 2026-04-28 19:55 | 40.31972 | 11.66519 | 37073 ft | 454 kts | 161° |
| 2026-04-28 19:55 | 40.26080 | 11.69502 | 37069 ft | 454 kts | 162° |
| 2026-04-28 19:56 | 40.20188 | 11.72475 | 37073 ft | 454 kts | 162° |
| 2026-04-28 19:56 | 40.14298 | 11.75429 | 37079 ft | 454 kts | 162° |
| 2026-04-28 19:57 | 40.08399 | 11.78380 | 37082 ft | 454 kts | 162° |
| 2026-04-28 19:57 | 40.02507 | 11.81334 | 37077 ft | 454 kts | 162° |
| 2026-04-28 19:58 | 39.96658 | 11.84269 | 37076 ft | 454 kts | 162° |
| 2026-04-28 19:58 | 39.90763 | 11.87215 | 37077 ft | 454 kts | 162° |
| 2026-04-28 19:59 | 39.84873 | 11.90188 | 37070 ft | 454 kts | 161° |
| 2026-04-28 19:59 | 39.79064 | 11.93441 | 37076 ft | 455 kts | 159° |
| 2026-04-28 20:00 | 39.73279 | 11.96809 | 37078 ft | 455 kts | 159° |
| 2026-04-28 20:00 | 39.67482 | 12.00122 | 37082 ft | 455 kts | 159° |
| 2026-04-28 20:01 | 39.61670 | 12.03368 | 37076 ft | 455 kts | 160° |
| 2026-04-28 20:01 | 39.55859 | 12.06607 | 37075 ft | 455 kts | 160° |
| 2026-04-28 20:02 | 39.50038 | 12.09852 | 37076 ft | 456 kts | 160° |
| 2026-04-28 20:02 | 39.44248 | 12.13085 | 37078 ft | 456 kts | 160° |
| 2026-04-28 20:03 | 39.38422 | 12.16329 | 37068 ft | 456 kts | 160° |
| 2026-04-28 20:03 | 39.32596 | 12.19570 | 37077 ft | 456 kts | 160° |
| 2026-04-28 20:04 | 39.26770 | 12.22807 | 37079 ft | 456 kts | 160° |
| 2026-04-28 20:04 | 39.20938 | 12.26027 | 37085 ft | 455 kts | 160° |
| 2026-04-28 20:04 | 39.18022 | 12.27634 | 36904 ft | 456 kts | 160° |
| 2026-04-28 20:05 | 39.15148 | 12.29217 | 36254 ft | 456 kts | 160° |
| 2026-04-28 20:05 | 39.12222 | 12.30827 | 35443 ft | 458 kts | 160° |
| 2026-04-28 20:05 | 39.09284 | 12.32445 | 34568 ft | 461 kts | 159° |
| 2026-04-28 20:05 | 39.06321 | 12.34080 | 33605 ft | 465 kts | 159° |
| 2026-04-28 20:06 | 39.03299 | 12.35748 | 32569 ft | 468 kts | 159° |
| 2026-04-28 20:06 | 39.00338 | 12.37381 | 31552 ft | 471 kts | 158° |
| 2026-04-28 20:06 | 38.97328 | 12.39041 | 30562 ft | 472 kts | 158° |
| 2026-04-28 20:06 | 38.94290 | 12.40713 | 29335 ft | 477 kts | 158° |
| 2026-04-28 20:07 | 38.91269 | 12.42372 | 28822 ft | 467 kts | 159° |
| 2026-04-28 20:07 | 38.89254 | 12.43474 | 28326 ft | 463 kts | 159° |
| 2026-04-28 20:07 | 38.85502 | 12.46001 | 27421 ft | 459 kts | 148° |
| 2026-04-28 20:07 | 38.82890 | 12.48312 | 26765 ft | 454 kts | 146° |
| 2026-04-28 20:08 | 38.80303 | 12.50610 | 26127 ft | 450 kts | 146° |
| 2026-04-28 20:08 | 38.77733 | 12.52886 | 25486 ft | 447 kts | 147° |
| 2026-04-28 20:08 | 38.75182 | 12.55135 | 24854 ft | 444 kts | 147° |
| 2026-04-28 20:08 | 38.72644 | 12.57365 | 24227 ft | 441 kts | 147° |
| 2026-04-28 20:09 | 38.70123 | 12.59576 | 23600 ft | 439 kts | 147° |
| 2026-04-28 20:09 | 38.67609 | 12.61779 | 22929 ft | 435 kts | 147° |
| 2026-04-28 20:09 | 38.65126 | 12.63959 | 22364 ft | 430 kts | 147° |
| 2026-04-28 20:09 | 38.62670 | 12.66118 | 21814 ft | 426 kts | 147° |
| 2026-04-28 20:10 | 38.60233 | 12.68262 | 21290 ft | 422 kts | 147° |
| 2026-04-28 20:10 | 38.57821 | 12.70382 | 20776 ft | 419 kts | 147° |
| 2026-04-28 20:10 | 38.55429 | 12.72478 | 20293 ft | 415 kts | 147° |
| 2026-04-28 20:10 | 38.53056 | 12.74554 | 19803 ft | 412 kts | 147° |
| 2026-04-28 20:11 | 38.50747 | 12.76712 | 19337 ft | 410 kts | 139° |
| 2026-04-28 20:11 | 38.48947 | 12.79516 | 18762 ft | 411 kts | 120° |
| 2026-04-28 20:11 | 38.47912 | 12.82918 | 18046 ft | 414 kts | 101° |
| 2026-04-28 20:11 | 38.47771 | 12.86558 | 17504 ft | 409 kts | 82° |
| 2026-04-28 20:12 | 38.48445 | 12.89999 | 16988 ft | 403 kts | 66° |
| 2026-04-28 20:12 | 38.49553 | 12.93308 | 16469 ft | 399 kts | 66° |
| 2026-04-28 20:12 | 38.50553 | 12.96608 | 15916 ft | 397 kts | 69° |
| 2026-04-28 20:12 | 38.51139 | 12.98811 | 15552 ft | 396 kts | 71° |
| 2026-04-28 20:13 | 38.52111 | 13.03299 | 14805 ft | 395 kts | 76° |
| 2026-04-28 20:13 | 38.52662 | 13.06727 | 14236 ft | 394 kts | 79° |
| 2026-04-28 20:13 | 38.53062 | 13.10183 | 13643 ft | 393 kts | 83° |
| 2026-04-28 20:13 | 38.53304 | 13.13650 | 13039 ft | 390 kts | 86° |
| 2026-04-28 20:14 | 38.53399 | 13.17103 | 12447 ft | 388 kts | 89° |
| 2026-04-28 20:14 | 38.53357 | 13.20530 | 11848 ft | 385 kts | 92° |
| 2026-04-28 20:14 | 38.53168 | 13.23926 | 11283 ft | 382 kts | 96° |
| 2026-04-28 20:14 | 38.52812 | 13.27266 | 10764 ft | 377 kts | 99° |
| 2026-04-28 20:15 | 38.52333 | 13.30487 | 10612 ft | 361 kts | 102° |
| 2026-04-28 20:15 | 38.51778 | 13.33547 | 10489 ft | 343 kts | 105° |
| 2026-04-28 20:15 | 38.51158 | 13.36382 | 10369 ft | 323 kts | 108° |
| 2026-04-28 20:15 | 38.50465 | 13.39056 | 10240 ft | 312 kts | 110° |
| 2026-04-28 20:16 | 38.49702 | 13.41616 | 10014 ft | 305 kts | 113° |
| 2026-04-28 20:16 | 38.48871 | 13.44093 | 9742 ft | 306 kts | 115° |
| 2026-04-28 20:16 | 38.47946 | 13.46544 | 9342 ft | 304 kts | 118° |
| 2026-04-28 20:16 | 38.46951 | 13.48907 | 8963 ft | 301 kts | 121° |
| 2026-04-28 20:17 | 38.45862 | 13.51150 | 8324 ft | 295 kts | 131° |
| 2026-04-28 20:17 | 38.44288 | 13.52742 | 7672 ft | 287 kts | 158° |
| 2026-04-28 20:17 | 38.42379 | 13.53290 | 7077 ft | 278 kts | 183° |
| 2026-04-28 20:17 | 38.40507 | 13.52763 | 6616 ft | 277 kts | 207° |
| 2026-04-28 20:18 | 38.38915 | 13.51403 | 6134 ft | 276 kts | 218° |
| 2026-04-28 20:18 | 38.37901 | 13.50421 | 5878 ft | 274 kts | 218° |
| 2026-04-28 20:18 | 38.35886 | 13.48463 | 5474 ft | 266 kts | 217° |
| 2026-04-28 20:18 | 38.34449 | 13.47068 | 5360 ft | 252 kts | 217° |
| 2026-04-28 20:19 | 38.33088 | 13.45754 | 5267 ft | 239 kts | 216° |
| 2026-04-28 20:19 | 38.31810 | 13.44522 | 5178 ft | 229 kts | 216° |
| 2026-04-28 20:19 | 38.30569 | 13.43323 | 5091 ft | 219 kts | 216° |
| 2026-04-28 20:19 | 38.29387 | 13.42183 | 5001 ft | 208 kts | 216° |
| 2026-04-28 20:20 | 38.28377 | 13.40962 | 4956 ft | 194 kts | 231° |
| 2026-04-28 20:20 | 38.27735 | 13.39478 | 4691 ft | 191 kts | 245° |
| 2026-04-28 20:20 | 38.27222 | 13.37931 | 4408 ft | 188 kts | 245° |
| 2026-04-28 20:20 | 38.26719 | 13.36413 | 4155 ft | 184 kts | 245° |
| 2026-04-28 20:21 | 38.26225 | 13.34929 | 3910 ft | 180 kts | 245° |
| 2026-04-28 20:21 | 38.25741 | 13.33478 | 3671 ft | 176 kts | 245° |
| 2026-04-28 20:21 | 38.25267 | 13.32054 | 3441 ft | 173 kts | 244° |
| 2026-04-28 20:21 | 38.24801 | 13.30658 | 3225 ft | 167 kts | 244° |
| 2026-04-28 20:22 | 38.24370 | 13.29362 | 3080 ft | 154 kts | 244° |
| 2026-04-28 20:22 | 38.23957 | 13.28128 | 2924 ft | 150 kts | 244° |
| 2026-04-28 20:22 | 38.23557 | 13.26934 | 2703 ft | 148 kts | 244° |
| 2026-04-28 20:22 | 38.23154 | 13.25736 | 2441 ft | 147 kts | 245° |
| 2026-04-28 20:23 | 38.22755 | 13.24544 | 2145 ft | 146 kts | 245° |
| 2026-04-28 20:23 | 38.22363 | 13.23358 | 1937 ft | 145 kts | 245° |
| 2026-04-28 20:23 | 38.21981 | 13.22167 | 1720 ft | 145 kts | 247° |
| 2026-04-28 20:23 | 38.21726 | 13.21365 | 1572 ft | 145 kts | 244° |
| 2026-04-28 20:24 | 38.21182 | 13.19818 | 1264 ft | 144 kts | 245° |
| 2026-04-28 20:24 | 38.20796 | 13.18646 | 1085 ft | 143 kts | 247° |
| 2026-04-28 20:24 | 38.20389 | 13.17495 | 922 ft | 143 kts | 246° |
| 2026-04-28 20:24 | 38.20009 | 13.16333 | 731 ft | 142 kts | 247° |
| 2026-04-28 20:25 | 38.19624 | 13.15178 | 589 ft | 141 kts | 248° |
| 2026-04-28 20:25 | 38.19237 | 13.14031 | 450 ft | 141 kts | 247° |
| 2026-04-28 20:25 | 38.18856 | 13.12893 | 262 ft | 140 kts | 248° |
| 2026-04-28 20:25 | 38.18475 | 13.11760 | 67 ft | 139 kts | 245° |
| 2026-04-28 20:26 | 38.18145 | 13.10773 | 53 ft | 97 kts | 247° |
| 2026-04-28 20:26 | 38.17950 | 13.10194 | 52 ft | 49 kts | 247° |
| 2026-04-28 20:26 | 38.17826 | 13.09814 | 53 ft | 45 kts | 248° |
| 2026-04-28 20:26 | 38.17710 | 13.09467 | 52 ft | 42 kts | 246° |
| 2026-04-28 20:27 | 38.17597 | 13.09146 | 50 ft | 21 kts | 248° |
| 2026-04-28 20:27 | 38.17654 | 13.09138 | 52 ft | 12 kts | 30° |
| 2026-04-28 20:27 | 38.17772 | 13.09209 | 52 ft | 22 kts | 25° |
| 2026-04-28 20:27 | 38.17863 | 13.09322 | 53 ft | 19 kts | 66° |
| 2026-04-28 20:28 | 38.17916 | 13.09480 | 53 ft | 20 kts | 66° |
| 2026-04-28 20:28 | 38.17975 | 13.09653 | 53 ft | 22 kts | 66° |
| 2026-04-28 20:28 | 38.18038 | 13.09841 | 51 ft | 24 kts | 67° |
| 2026-04-28 20:28 | 38.18106 | 13.10044 | 53 ft | 26 kts | 66° |
| 2026-04-28 20:29 | 38.18178 | 13.10260 | 53 ft | 27 kts | 67° |
| 2026-04-28 20:29 | 38.18251 | 13.10364 | 53 ft | 13 kts | 354° |
| 2026-04-28 20:29 | 38.18324 | 13.10320 | 53 ft | 8 kts | 336° |
| 2026-04-28 20:29 | 38.18369 | 13.10313 | 53 ft | 5 kts | 36° |
| 2026-04-28 20:30 | 38.18380 | 13.10339 | 53 ft | 5 kts | 67° |
| 2026-04-28 20:30 | 38.18392 | 13.10375 | 53 ft | 4 kts | 67° |
| 2026-04-28 20:30 | 38.18401 | 13.10400 | 53 ft | 0 kts | 67° |
| 2026-04-28 20:30 | 38.18401 | 13.10401 | 53 ft | 0 kts | 67° |